Date,TemperatureHighF,TemperatureAvgF,TemperatureLowF,DewpointHighF,DewpointAvgF,DewpointLowF,HumidityHigh,HumidityAvg,HumidityLow,PressureMaxIn,PressureMinIn,WindSpeedMaxMPH,WindSpeedAvgMPH,GustSpeedMaxMPH,PrecipitationSumIn
2013-2-13,47.1,46.7,43.5,42.0,41.3,35.8,83,82,74,29.75,29.65,4,1,8,0.29
2013-2-14,51.6,40.1,33.6,34.2,29.6,26.9,77,67,49,30.01,29.78,0,0,0,0.00
2013-2-15,60.6,43.6,31.8,39.6,29.3,24.7,77,58,38,30.02,29.86,9,0,9,0.00
2013-2-16,44.8,35.5,31.6,30.6,28.7,25.7,81,76,57,29.91,29.80,8,0,10,0.29
2013-2-17,36.3,30.9,25.7,24.3,14.0,10.6,75,50,38,30.20,29.85,11,1,11,0.00
2013-2-18,50.7,35.2,20.1,24.7,17.7,9.5,65,50,36,30.35,30.20,0,0,0,0.00
2013-2-19,49.6,40.9,32.7,45.3,32.6,20.5,85,73,52,30.16,29.80,5,0,5,0.16
2013-2-20,50.9,41.1,32.7,35.5,21.7,15.5,80,48,31,30.08,29.89,5,0,5,0.00
2013-2-21,51.6,39.0,27.3,23.8,18.8,12.4,57,44,32,30.20,30.06,5,0,5,0.00
2013-2-22,41.2,36.7,33.1,29.7,25.8,20.9,71,65,44,30.29,30.14,0,0,0,0.10
2013-2-23,44.2,41.6,36.3,38.5,36.4,30.6,83,82,78,30.11,29.76,0,0,2,0.29
2013-2-24,61.3,52.0,39.7,42.5,34.7,26.1,84,54,38,29.97,29.74,8,0,10,0.00
2013-2-25,44.4,40.4,33.1,24.9,22.9,20.7,60,50,46,30.17,29.99,3,0,7,0.00
2013-2-26,54.0,45.5,35.4,50.3,40.7,22.1,89,83,58,30.09,29.50,6,0,14,0.55
2013-2-27,58.8,49.5,42.4,43.4,37.0,34.4,85,63,46,29.72,29.57,10,0,10,0.00
2013-2-28,48.9,43.9,38.1,35.9,30.1,24.6,71,59,46,29.79,29.64,17,2,17,0.00
2013-3-1,38.3,32.9,31.3,25.2,22.1,21.2,66,64,59,29.80,29.77,0,0,0,0.00
2013-3-2,46.9,38.5,34.2,26.1,21.8,17.9,62,51,44,29.86,29.75,5,0,6,0.00
2013-3-3,45.7,36.6,30.4,23.9,18.9,15.0,57,49,39,29.92,29.78,10,1,10,0.00
2013-3-4,50.2,39.8,26.4,20.9,17.3,11.5,53,40,30,30.05,29.91,8,0,8,0.00
2013-3-5,47.8,42.5,35.4,39.6,33.2,18.1,82,70,49,30.02,29.61,8,0,12,0.20
2013-3-6,46.0,41.8,36.3,37.1,30.3,27.4,84,64,56,29.94,29.47,11,2,11,0.02
2013-3-7,49.1,42.7,36.0,30.8,27.9,24.4,67,56,46,30.17,29.97,10,1,10,0.00
2013-3-8,54.1,45.1,33.6,28.4,24.8,21.2,63,45,35,30.20,30.09,12,0,12,0.00
2013-3-9,61.9,52.5,36.3,32.4,29.1,22.9,59,41,30,30.28,30.17,7,0,10,0.00
2013-3-10,66.6,56.2,33.6,35.7,31.0,22.0,66,40,27,30.27,30.14,4,0,11,0.00
2013-3-11,65.5,46.8,39.9,49.8,30.8,23.9,66,54,42,30.17,30.03,0,0,0,0.00
2013-3-12,60.6,59.5,57.9,55.9,53.3,50.0,86,80,68,29.87,29.70,8,1,8,0.33
2013-3-13,55.6,47.1,36.1,34.1,28.1,19.5,68,49,35,30.04,29.89,13,3,13,0.00
2013-3-14,53.2,39.7,29.8,24.4,18.8,15.2,55,43,30,30.17,30.04,21,2,21,0.00
2013-3-15,63.5,52.4,30.7,36.1,30.2,15.3,55,43,35,30.11,29.84,7,0,7,0.00
2013-3-16,76.8,60.0,44.8,50.0,41.3,30.5,64,51,38,29.83,29.59,18,2,18,0.00
2013-3-17,61.3,48.4,42.4,47.4,38.0,34.7,78,67,59,30.08,29.78,10,2,14,0.00
2013-3-18,42.4,40.5,37.8,37.6,35.9,33.2,84,84,80,30.15,29.82,2,0,9,0.16
2013-3-19,66.4,54.9,40.1,44.0,31.3,24.6,85,46,27,29.93,29.76,12,2,13,0.00
2013-3-20,57.9,48.0,39.6,24.2,19.3,13.8,40,32,26,30.05,29.75,11,0,11,0.00
2013-3-21,43.7,39.6,32.0,26.4,18.3,9.8,54,42,34,29.91,29.69,16,3,16,0.00
2013-3-22,52.0,43.0,25.2,20.2,17.8,9.1,51,36,28,30.02,29.90,13,1,13,0.00
2013-3-23,56.8,44.9,36.0,30.8,24.0,16.5,53,44,36,30.00,29.86,0,0,0,0.00
2013-3-24,41.0,39.1,36.3,35.0,31.2,23.6,83,74,52,29.87,29.51,8,1,10,0.65
2013-3-25,48.0,42.7,35.4,35.4,26.7,24.2,81,54,44,29.70,29.51,18,3,18,0.00
2013-3-26,49.3,43.4,32.9,30.4,25.6,20.5,63,50,45,30.01,29.74,10,1,10,0.00
2013-3-27,51.3,43.3,34.7,26.9,22.3,19.4,62,44,35,30.16,30.05,15,2,15,0.00
2013-3-28,38.3,34.4,33.1,21.0,20.5,19.6,60,57,49,30.16,30.13,8,0,8,0.00
2013-3-29,61.3,51.5,32.7,31.0,26.4,19.1,59,38,30,30.26,30.11,4,0,14,0.00
2013-3-30,68.2,53.3,40.5,37.2,31.0,23.7,57,43,31,30.18,30.01,9,1,9,0.00
2013-3-31,68.2,59.4,48.6,54.9,49.2,35.2,82,69,48,30.03,29.74,12,1,19,0.51
2013-4-1,72.7,61.4,54.3,49.5,42.5,37.8,79,52,37,29.86,29.75,9,1,9,0.04
2013-4-2,61.0,50.3,37.2,34.7,26.2,23.6,62,40,28,30.10,29.91,10,1,10,0.00
2013-4-3,60.6,49.7,38.3,27.1,22.6,17.6,44,35,26,30.24,30.09,10,1,10,0.00
2013-4-4,46.6,39.8,39.0,34.0,29.4,20.2,82,68,38,30.32,29.92,4,0,9,0.45
2013-4-5,65.5,52.7,38.8,46.2,37.7,33.8,84,58,45,29.95,29.82,6,0,6,0.08
2013-4-6,66.6,55.3,44.4,35.1,31.0,25.2,60,40,30,30.22,29.96,6,1,15,0.00
2013-4-7,73.4,57.0,39.4,45.9,37.5,27.4,65,49,35,30.22,30.04,6,0,6,0.00
2013-4-8,80.4,71.5,51.6,56.2,50.2,38.4,75,48,39,30.10,29.98,4,0,4,0.00
2013-4-9,87.1,75.5,57.0,59.8,54.5,48.4,75,49,37,30.11,29.99,10,0,10,0.00
2013-4-10,89.4,74.6,59.9,62.5,56.4,50.1,76,55,37,30.03,29.87,9,0,9,0.00
2013-4-11,82.4,72.8,62.8,63.6,58.2,53.5,77,61,46,29.93,29.74,3,0,3,0.00
2013-4-12,84.7,76.2,66.9,66.9,60.0,52.8,86,59,45,29.74,29.54,6,0,9,0.41
2013-4-13,76.8,64.1,50.7,44.9,41.8,36.9,60,45,31,29.93,29.70,10,0,10,0.00
2013-4-14,82.6,70.9,47.5,48.5,44.2,36.0,67,40,27,30.05,29.94,3,0,10,0.00
2013-4-15,72.3,65.8,57.4,56.2,53.6,45.1,80,65,44,30.16,29.99,0,0,0,0.06
2013-4-16,77.9,70.6,60.1,61.0,56.9,53.1,79,63,53,30.25,30.13,0,0,0,0.00
2013-4-17,81.7,69.8,58.3,64.5,58.3,51.4,83,68,54,30.17,30.06,0,0,0,0.00
2013-4-18,80.4,71.0,62.1,61.3,58.0,54.3,80,64,47,30.15,29.99,9,1,9,0.00
2013-4-19,81.7,68.3,65.8,66.2,61.6,58.3,86,80,58,29.99,29.66,14,0,14,0.84
2013-4-20,67.3,57.3,48.0,60.8,38.0,34.2,85,50,36,30.18,29.77,8,2,10,0.06
2013-4-21,63.5,58.0,43.9,41.1,38.4,32.9,69,48,43,30.45,30.23,8,0,9,0.00
2013-4-22,62.2,50.3,38.1,41.4,36.4,29.5,75,60,43,30.42,30.22,14,1,14,0.00
2013-4-23,72.3,61.2,48.0,51.5,46.7,40.5,75,60,48,30.22,30.06,4,0,4,0.02
2013-4-24,76.5,68.1,48.7,56.7,52.5,41.2,83,58,48,30.09,29.91,8,1,8,0.00
2013-4-25,75.2,63.9,52.3,51.7,43.9,37.5,70,49,37,30.19,29.95,10,1,10,0.00
2013-4-26,73.9,59.3,45.9,43.6,40.1,36.2,71,51,32,30.36,30.21,6,0,6,0.00
2013-4-27,73.9,66.3,52.7,48.2,46.0,38.9,67,49,38,30.33,30.20,5,0,8,0.00
2013-4-28,60.4,58.0,55.4,52.3,49.4,44.8,80,73,64,30.21,30.05,0,0,0,0.24
2013-4-29,70.3,60.2,54.7,62.1,54.7,49.3,85,82,75,30.07,29.92,0,0,0,0.55
2013-4-30,61.3,59.2,58.3,55.5,54.2,53.1,86,84,81,30.04,29.96,0,0,0,0.00
2013-5-1,61.2,58.8,57.7,56.6,54.0,52.5,86,84,82,30.29,30.13,4,1,4,0.00
2013-5-2,61.9,59.6,56.3,55.6,54.0,51.5,86,82,79,30.29,30.20,1,0,4,0.00
2013-5-3,68.7,57.4,49.1,54.7,47.8,42.3,85,71,51,30.23,30.13,0,0,0,0.00
2013-5-4,62.1,57.5,49.3,52.0,48.7,41.6,80,73,68,30.18,30.04,6,1,9,0.00
2013-5-5,58.8,54.7,49.1,52.7,48.7,43.2,82,80,74,30.05,29.94,2,0,10,0.00
2013-5-6,65.7,61.0,55.6,61.4,56.9,51.5,89,86,84,29.96,29.79,0,0,0,2.26
2013-5-7,67.3,61.4,55.4,58.6,53.9,50.6,87,77,69,29.88,29.81,1,0,2,0.02
2013-5-8,68.7,60.5,53.6,59.3,54.0,47.8,85,79,67,29.95,29.86,8,0,8,0.00
2013-5-9,83.5,70.9,55.0,61.1,57.0,50.3,87,63,47,30.00,29.92,8,0,8,0.00
2013-5-10,86.7,72.1,58.8,63.7,58.0,51.6,79,63,43,30.01,29.89,0,0,0,0.00
2013-5-11,82.9,75.0,68.2,64.2,61.6,57.6,74,64,51,29.90,29.73,14,0,17,0.02
2013-5-12,75.7,66.5,60.1,60.7,48.3,39.1,81,55,34,29.94,29.75,10,1,14,0.22
2013-5-13,70.5,57.4,45.9,40.8,36.8,33.4,64,47,33,30.12,29.98,2,0,2,0.00
2013-5-14,72.3,57.4,42.6,45.8,38.5,30.9,67,50,35,30.19,30.02,1,0,1,0.00
2013-5-15,91.4,70.0,52.5,64.4,52.8,40.1,68,55,41,30.01,29.83,7,0,7,0.00
2013-5-16,86.4,77.2,64.0,63.1,60.2,54.8,74,56,44,29.92,29.84,8,0,8,0.00
2013-5-17,90.0,75.7,64.0,65.4,60.9,55.0,75,61,44,30.03,29.93,3,0,3,0.00
2013-5-18,77.4,71.4,63.9,68.2,63.1,54.6,81,75,66,30.12,30.02,6,0,8,0.75
2013-5-19,73.8,69.9,64.2,68.8,64.7,58.9,87,84,80,30.10,30.00,5,0,8,0.37
2013-5-20,77.7,71.7,67.5,69.6,66.3,63.6,89,83,74,30.06,29.97,3,0,12,0.61
2013-5-21,85.6,76.4,68.2,73.3,68.3,63.5,88,76,63,29.99,29.89,6,0,6,0.00
2013-5-22,85.6,75.0,70.2,69.5,66.6,64.4,84,76,55,29.98,29.86,7,0,7,0.02
2013-5-23,70.2,67.7,66.7,64.4,62.5,61.7,85,84,80,29.91,29.87,0,0,0,0.14
2013-5-24,69.6,64.1,58.1,63.4,45.8,40.1,83,53,40,30.08,29.77,24,2,24,0.02
2013-5-25,77.9,59.2,45.1,47.4,40.8,35.3,71,53,31,30.21,30.08,8,1,8,0.00
2013-5-26,79.0,61.9,49.3,51.0,44.9,38.0,69,55,37,30.23,30.12,3,0,3,0.00
2013-5-27,87.1,67.1,52.5,58.4,51.7,44.3,76,59,38,30.23,30.11,3,0,3,0.00
2013-5-28,86.2,77.8,60.6,66.0,61.7,49.7,78,58,50,30.21,30.08,0,0,1,0.00
2013-5-29,87.6,77.7,63.7,66.1,62.3,56.0,81,60,49,30.19,30.10,0,0,0,0.00
2013-5-30,90.1,80.4,64.2,67.9,63.3,56.5,81,57,45,30.22,30.12,0,0,0,0.00
2013-5-31,89.8,81.2,66.7,68.3,65.3,59.3,82,59,48,30.18,30.05,0,0,0,0.00
2013-6-1,90.3,78.7,68.9,68.0,64.9,61.6,82,64,47,30.09,29.97,0,0,0,0.00
2013-6-2,86.9,77.5,69.6,68.6,65.6,61.8,79,67,52,29.99,29.86,0,0,0,0.29
2013-6-3,85.6,76.1,70.7,72.5,68.2,64.0,86,77,63,29.90,29.78,0,0,0,0.45
2013-6-4,77.7,70.5,65.3,65.7,62.9,60.7,86,77,65,30.04,29.89,0,0,0,0.00
2013-6-5,82.0,73.8,63.1,65.3,62.5,57.6,82,68,54,30.09,29.97,0,0,0,0.00
2013-6-6,73.8,69.2,65.8,68.8,62.6,56.4,88,80,63,29.99,29.77,9,0,9,0.92
2013-6-7,72.9,70.4,68.5,69.4,67.0,65.2,90,89,87,29.80,29.48,9,0,12,1.75
2013-6-8,70.7,69.6,68.7,67.3,66.2,65.3,89,89,89,29.85,29.77,0,0,0,0.02
2013-6-9,87.6,76.6,67.6,72.5,67.7,62.5,85,75,60,30.12,30.01,7,0,7,0.00
2013-6-10,81.0,76.0,72.1,75.0,70.8,66.3,88,84,78,30.06,29.84,8,2,13,0.82
2013-6-11,87.8,78.4,70.0,68.6,66.6,64.6,86,68,51,29.90,29.84,4,0,4,0.00
2013-6-12,93.4,78.4,66.0,74.8,67.6,60.0,83,70,55,29.92,29.82,6,0,6,0.00
2013-6-13,95.5,76.8,71.8,74.5,67.3,63.0,86,73,44,29.81,29.55,2,0,2,0.14
2013-6-14,81.5,71.3,61.7,63.2,59.0,55.1,80,66,48,29.94,29.66,11,1,11,0.00
2013-6-15,88.0,72.9,60.4,65.2,59.8,53.5,80,65,46,30.07,29.96,0,0,0,0.00
2013-6-16,89.4,73.9,65.1,70.6,63.0,56.2,76,69,52,30.07,29.94,1,0,2,0.00
2013-6-17,84.2,77.4,71.8,73.0,67.7,63.4,76,72,67,29.98,29.88,6,0,6,0.00
2013-6-18,82.9,74.6,71.4,72.6,67.8,65.3,84,80,71,29.92,29.72,1,0,1,0.49
2013-6-19,81.1,72.7,65.8,68.4,65.3,61.2,88,78,64,30.06,29.83,0,0,0,0.00
2013-6-20,84.7,73.4,65.3,66.3,62.6,60.3,85,70,54,30.19,30.07,0,0,0,0.00
2013-6-21,86.7,75.4,59.5,64.2,59.8,51.0,79,59,46,30.22,30.14,0,0,0,0.00
2013-6-22,84.0,77.0,70.2,71.3,67.9,61.0,82,74,64,30.17,30.07,4,0,9,0.00
2013-6-23,87.6,79.2,69.4,74.0,70.4,64.4,85,75,62,30.17,30.07,6,0,9,0.02
2013-6-24,88.7,78.7,71.8,73.7,69.9,66.0,85,75,60,30.16,30.04,7,0,7,0.00
2013-6-25,92.3,81.1,70.3,75.4,69.8,64.8,85,69,58,30.07,29.95,2,0,4,0.00
2013-6-26,93.4,77.3,71.2,75.3,68.2,64.4,84,74,54,29.97,29.84,2,0,2,0.59
2013-6-27,89.4,78.8,68.4,75.2,70.2,63.7,89,76,61,29.90,29.68,5,0,5,0.00
2013-6-28,91.4,76.0,72.5,74.0,68.5,65.7,86,78,57,29.69,29.52,8,0,8,0.63
2013-6-29,86.7,78.9,70.3,73.5,70.9,66.0,88,77,64,29.68,29.56,3,0,7,0.35
2013-6-30,85.8,75.0,70.3,75.2,68.8,64.0,88,81,67,29.82,29.67,4,0,9,0.73
2013-7-1,82.8,75.1,70.0,74.0,69.6,66.3,89,83,74,29.94,29.79,5,0,8,0.77
2013-7-2,75.6,74.1,72.7,70.9,69.9,68.6,89,87,81,30.14,29.93,6,1,8,0.20
2013-7-3,85.1,76.9,73.0,76.3,72.1,69.1,91,85,72,30.20,30.10,7,1,13,1.43
2013-7-4,74.3,74.1,73.9,70.0,69.9,69.8,87,87,86,30.20,30.19,0,0,0,0.00
2013-7-5,91.2,80.1,72.1,74.0,71.1,67.7,89,75,57,30.23,30.12,5,0,5,0.00
2013-7-6,90.1,80.8,74.1,74.9,71.3,69.0,84,74,61,30.20,30.08,0,0,0,0.00
2013-7-7,89.4,80.9,70.7,75.2,71.7,64.9,86,74,63,30.15,30.02,3,0,3,0.00
2013-7-8,90.5,80.9,71.4,75.5,71.8,66.7,87,75,59,30.13,30.04,3,0,6,0.71
2013-7-9,88.2,78.3,72.7,76.3,71.1,67.2,87,79,68,30.11,30.02,1,0,4,0.00
2013-7-10,88.9,77.5,73.0,75.1,70.7,67.6,87,80,64,30.07,29.89,6,0,9,0.22
2013-7-11,79.0,73.6,72.7,73.4,69.1,68.1,89,86,80,29.94,29.85,4,0,4,0.43
2013-7-12,74.7,72.3,70.9,69.8,67.6,66.5,89,85,82,29.97,29.83,1,0,4,0.00
2013-7-13,77.9,75.7,69.6,73.7,71.6,65.6,89,87,86,30.12,29.97,0,0,0,0.16
2013-7-14,89.2,78.4,70.3,75.3,71.5,67.3,91,80,62,30.25,30.15,5,1,5,0.00
2013-7-15,93.0,86.5,70.5,75.6,73.2,65.8,87,65,56,30.27,30.19,0,0,2,0.00
2013-7-16,97.0,81.3,71.2,78.1,71.6,65.8,84,73,55,30.23,30.13,0,0,0,0.33
2013-7-17,94.6,85.8,75.7,77.9,75.1,70.5,87,71,58,30.18,30.06,0,0,0,0.00
2013-7-18,93.0,85.6,75.9,78.2,75.4,70.4,84,72,59,30.09,29.98,2,0,5,0.00
2013-7-19,92.1,85.0,75.4,76.4,73.1,69.9,86,68,59,30.05,29.93,6,0,6,0.00
2013-7-20,92.3,83.3,75.4,76.4,73.2,69.5,82,72,60,29.98,29.86,0,0,0,0.00
2013-7-21,88.7,78.3,74.8,75.7,71.6,69.1,83,80,65,29.94,29.87,10,0,10,0.00
2013-7-22,90.0,80.8,72.7,76.2,71.8,67.9,86,75,64,29.91,29.77,8,0,8,0.04
2013-7-23,92.8,81.7,74.5,74.8,71.6,69.3,84,72,55,29.80,29.68,0,0,0,0.00
2013-7-24,92.8,81.5,72.1,74.3,69.9,65.8,81,69,49,29.79,29.69,3,0,3,0.00
2013-7-25,81.5,74.5,67.8,69.5,66.3,62.5,84,76,67,29.98,29.80,6,0,6,0.18
2013-7-26,87.4,74.3,64.0,69.1,63.8,58.1,83,71,54,30.07,29.98,0,0,0,0.00
2013-7-27,83.8,73.5,67.6,70.8,66.5,61.4,85,79,65,30.01,29.89,2,0,10,0.10
2013-7-28,91.2,80.6,70.0,73.7,70.6,65.6,87,73,54,29.92,29.87,3,0,6,0.00
2013-7-29,89.8,77.9,69.4,68.8,64.5,60.9,85,64,47,30.10,29.94,8,0,8,0.08
2013-7-30,87.6,74.8,64.0,69.5,63.3,56.0,76,68,55,30.18,30.09,0,0,0,0.00
2013-7-31,82.2,75.0,71.8,71.7,68.0,64.7,83,79,69,30.10,29.96,0,0,0,0.02
2013-8-1,85.8,76.5,70.9,74.0,69.9,66.5,88,80,68,29.97,29.81,3,0,3,0.37
2013-8-2,90.5,80.3,67.3,72.4,69.1,62.6,87,69,55,29.97,29.86,6,0,6,0.51
2013-8-3,87.4,79.2,71.2,75.8,72.3,65.6,86,79,66,29.97,29.86,6,0,7,0.06
2013-8-4,81.9,75.3,70.7,70.7,68.7,66.1,89,80,63,29.95,29.85,8,1,10,0.00
2013-8-5,83.3,75.2,65.5,66.7,64.3,58.8,81,69,56,30.05,29.96,0,0,0,0.00
2013-8-6,82.2,77.0,67.3,69.1,66.3,61.4,84,70,62,30.01,29.95,0,0,0,0.27
2013-8-7,85.6,76.7,70.0,70.3,67.4,63.2,84,74,60,30.05,29.98,6,0,6,0.00
2013-8-8,88.9,81.9,71.2,73.7,71.2,65.3,85,71,61,30.02,29.95,0,0,0,0.00
2013-8-9,93.0,81.0,73.9,76.4,70.5,68.0,86,71,58,29.99,29.93,9,0,9,0.00
2013-8-10,90.6,80.5,74.0,76.7,71.8,67.9,84,75,61,30.03,29.96,2,0,11,0.18
2013-8-11,92.0,78.7,71.5,76.0,71.7,67.4,87,79,58,30.06,29.97,2,0,5,0.00
2013-8-12,93.6,79.3,72.4,73.6,70.3,67.6,86,75,51,30.01,29.91,8,0,8,0.00
2013-8-13,88.4,79.3,71.9,75.2,71.4,66.8,87,77,64,29.93,29.73,3,0,10,0.29
2013-8-14,74.6,71.1,63.4,67.5,63.1,55.3,83,76,68,30.04,29.78,0,0,0,0.00
2013-8-15,62.3,60.7,59.6,54.7,53.8,53.1,79,78,76,30.09,30.03,0,0,0,0.00
2013-8-16,70.1,66.3,59.6,60.6,58.1,53.4,81,75,71,30.13,30.05,0,0,0,0.00
2013-8-17,70.4,66.5,62.1,66.4,62.0,56.2,88,85,79,30.15,30.07,2,0,3,0.26
2013-8-18,77.1,72.6,67.4,68.1,65.8,61.8,90,79,71,30.17,30.07,4,0,7,0.08
2013-8-19,66.8,66.0,65.6,61.4,61.2,60.9,86,85,82,30.16,30.12,0,0,0,0.02
2013-8-20,69.0,66.3,65.0,64.3,62.2,61.1,88,87,85,30.10,30.06,0,0,0,0.00
2013-8-21,84.1,74.8,71.7,74.5,69.4,67.3,88,83,73,30.18,30.07,0,0,0,0.65
2013-8-22,89.7,77.4,69.3,72.7,69.2,65.3,90,77,57,30.09,29.95,2,0,2,0.00
2013-8-23,86.6,75.6,69.0,72.2,67.3,63.4,83,76,61,30.02,29.89,5,1,7,0.00
2013-8-24,82.3,76.3,63.2,63.8,61.5,58.0,83,61,51,30.22,30.04,7,0,7,0.00
2013-8-25,80.7,69.2,61.8,63.1,59.9,55.1,84,73,53,30.35,30.24,6,1,6,0.00
2013-8-26,85.2,71.0,55.8,63.0,58.1,49.6,83,65,47,30.27,30.06,0,0,0,0.00
2013-8-27,66.8,63.3,61.4,56.3,55.1,54.5,78,75,69,30.08,30.00,0,0,0,0.00
2013-8-28,80.0,75.1,69.9,73.2,68.8,64.5,83,81,76,29.94,29.83,0,0,0,0.00
2013-8-29,85.5,78.7,73.3,72.3,69.4,67.4,84,73,64,29.94,29.79,1,0,5,0.00
2013-8-30,88.2,77.0,66.8,68.9,65.8,61.5,84,69,52,30.02,29.90,0,0,0,0.00
2013-8-31,87.7,76.7,66.3,71.6,67.3,60.3,86,73,59,29.92,29.81,0,0,0,0.00
2013-9-1,89.1,74.2,70.1,74.4,67.6,64.7,86,80,62,29.86,29.75,0,0,0,0.69
2013-9-2,87.7,81.9,69.2,73.9,71.7,65.1,89,72,61,29.84,29.75,0,0,0,0.00
2013-9-3,87.7,78.0,70.4,73.8,69.4,65.7,87,76,58,29.88,29.75,0,0,0,0.00
2013-9-4,85.0,77.6,65.9,69.5,66.6,59.7,83,69,59,30.05,29.89,0,0,0,0.00
2013-9-5,86.8,74.3,64.8,64.3,61.5,59.9,84,66,43,30.05,29.98,0,0,0,0.00
2013-9-6,81.0,71.4,63.0,62.8,58.6,53.1,74,65,50,30.13,30.04,0,0,0,0.00
2013-9-7,82.1,70.5,59.1,64.5,59.5,52.6,80,69,55,30.09,29.93,0,0,0,0.00
2013-9-8,86.6,79.2,63.0,66.5,63.7,57.1,82,60,46,29.93,29.86,0,0,0,0.00
2013-9-9,87.0,78.5,66.6,69.7,66.7,60.3,81,68,56,30.08,29.95,0,0,0,0.00
2013-9-10,89.3,77.6,67.7,70.9,66.7,61.7,85,70,54,30.19,30.10,0,0,0,0.00
2013-9-11,89.1,77.1,67.4,70.6,65.9,61.0,82,69,52,30.16,30.04,0,0,0,0.00
2013-9-12,89.7,77.2,68.4,72.5,66.7,62.0,81,71,55,30.03,29.77,0,0,0,0.00
2013-9-13,83.0,74.7,69.0,65.4,58.2,52.9,79,57,46,29.83,29.72,0,0,0,0.00
2013-9-14,70.4,63.6,57.8,51.5,48.7,47.2,69,59,50,30.03,29.85,0,0,0,0.00
2013-9-15,69.7,60.2,52.8,58.3,51.5,44.5,77,73,65,30.19,30.10,0,0,0,0.00
2013-9-16,83.7,73.5,63.9,67.5,59.8,55.4,83,63,49,30.10,30.01,0,0,0,0.00
2013-9-17,68.6,62.8,58.5,56.8,52.9,50.6,75,70,66,30.23,30.14,0,0,0,0.00
2013-9-18,72.9,63.5,50.4,52.4,48.4,43.5,79,59,44,30.26,30.12,0,0,0,0.00
2013-9-19,74.6,63.8,56.0,58.8,53.0,46.9,76,68,55,30.15,30.05,0,0,0,0.00
2013-9-20,69.7,66.3,62.9,63.1,59.6,56.3,83,79,72,30.05,29.93,0,0,0,0.04
2013-9-21,74.2,68.4,65.0,67.5,63.6,60.7,87,85,79,29.93,29.69,0,0,0,0.37
2013-9-22,75.6,67.7,62.9,62.3,59.1,54.5,88,75,56,29.83,29.68,0,0,0,0.27
2013-9-23,71.3,62.9,55.3,54.1,51.6,48.0,77,67,54,30.02,29.85,0,0,0,0.00
2013-9-24,75.3,64.8,54.4,59.0,54.3,47.3,80,69,57,30.06,29.90,0,0,0,0.00
2013-9-25,72.4,62.7,53.5,60.2,54.8,47.5,83,76,64,29.92,29.83,0,0,0,0.00
2013-9-26,74.9,65.7,58.7,58.0,55.6,51.8,82,71,51,29.98,29.83,0,0,0,0.00
2013-9-27,72.0,63.5,54.9,57.6,53.3,49.5,85,70,58,30.13,29.99,0,0,0,0.00
2013-9-28,59.4,55.3,54.0,52.7,49.6,48.3,84,81,72,30.20,30.12,0,0,0,0.00
2013-9-29,72.0,61.4,51.9,55.9,51.0,46.9,85,70,51,30.13,29.99,0,0,0,0.00
2013-9-30,73.8,64.8,52.4,58.1,53.0,46.6,83,66,53,30.06,29.95,0,0,0,0.00
2013-10-1,81.2,66.1,54.2,61.0,55.2,47.8,83,69,49,30.07,29.97,0,0,0,0.00
2013-10-2,82.7,69.2,57.1,61.9,56.8,50.6,83,66,47,30.07,29.99,0,0,0,0.00
2013-10-3,83.9,72.5,60.0,64.8,59.5,52.9,81,65,48,30.07,30.00,0,0,0,0.00
2013-10-4,84.3,72.3,61.4,65.4,60.4,54.8,82,67,51,30.09,30.00,0,0,0,0.00
2013-10-5,87.9,73.6,62.7,67.5,61.4,56.4,82,67,46,30.07,29.98,0,0,0,0.00
2013-10-6,83.4,76.4,63.0,67.8,65.6,56.1,84,70,58,30.02,29.88,0,0,0,0.00
2013-10-7,72.4,68.3,65.4,67.8,64.0,60.9,88,86,80,29.92,29.80,0,0,0,1.53
2013-10-8,62.3,58.5,56.9,55.4,48.6,46.1,78,70,63,30.15,29.96,0,0,0,0.00
2013-10-9,60.9,56.8,54.9,52.5,50.1,47.0,83,78,71,30.16,30.06,0,0,0,0.00
2013-10-10,60.0,58.2,52.4,55.8,54.2,48.7,88,87,86,30.03,29.89,0,0,0,0.02
2013-10-11,65.4,60.9,57.6,59.7,56.5,54.1,88,86,82,29.91,29.85,0,0,0,0.04
2013-10-12,67.0,63.1,60.3,62.3,58.9,56.0,88,86,85,30.03,29.90,0,0,0,0.00
2013-10-13,65.0,62.0,60.5,60.9,58.2,57.1,89,87,86,30.16,30.03,0,0,0,0.06
2013-10-14,63.4,60.9,59.8,59.1,57.7,56.7,90,89,86,30.20,30.15,0,0,0,0.02
2013-10-15,69.9,64.2,51.9,59.5,56.2,48.4,89,76,66,30.16,30.00,0,0,0,0.00
2013-10-16,69.5,64.4,62.3,60.9,58.0,56.1,85,80,73,30.01,29.91,0,0,0,0.00
2013-10-17,71.7,65.5,60.0,62.5,59.3,55.1,87,81,69,29.91,29.79,0,0,0,0.00
2013-10-18,69.2,60.9,54.2,61.5,50.6,46.8,84,69,54,29.99,29.83,0,0,0,0.00
2013-10-19,61.8,59.0,56.9,57.2,53.7,49.8,85,83,75,29.93,29.84,0,0,0,0.00
2013-10-21,64.7,51.2,39.1,48.8,41.6,33.5,82,71,52,30.11,29.97,0,0,0,0.00
2013-10-22,65.7,57.4,51.2,56.2,50.4,44.4,82,77,71,29.95,29.77,0,0,0,0.00
2013-10-23,63.8,57.0,47.4,53.7,46.0,32.9,86,69,45,29.94,29.64,0,0,0,0.02
2013-10-24,55.8,46.8,37.1,35.7,32.4,28.1,71,58,45,30.12,29.96,0,0,0,0.00
2013-10-25,53.3,45.3,38.7,32.0,30.0,26.0,66,56,42,30.30,30.13,0,0,0,0.00
2013-10-26,56.9,44.0,31.4,34.2,29.2,22.4,72,57,41,30.30,30.01,0,0,0,0.00
2013-10-27,65.0,58.3,42.2,42.0,39.9,32.9,71,51,40,30.07,29.98,0,0,0,0.00
2013-11-3,60.0,50.8,42.5,41.3,37.2,33.6,72,60,45,30.30,29.87,0,0,0,0.00
2013-11-4,53.3,44.7,36.9,34.3,30.8,27.0,70,58,46,30.49,30.31,0,0,0,0.00
2013-11-5,56.7,47.1,37.5,44.3,36.2,27.4,71,66,60,30.49,30.39,0,0,0,0.00
2013-11-6,67.9,55.5,45.0,53.6,46.1,38.3,79,71,60,30.38,30.09,0,0,0,0.00
2013-11-7,67.2,58.0,47.6,57.8,48.4,31.3,86,71,51,30.07,29.87,0,0,0,0.02
2013-11-8,54.6,45.2,36.2,30.8,28.1,23.7,64,52,38,30.26,30.04,0,0,0,0.00
2013-11-9,44.7,36.9,31.5,32.5,26.3,21.5,69,65,59,30.32,30.26,0,0,0,0.00
2013-11-10,72.2,59.8,36.8,45.9,37.9,27.4,72,46,34,30.13,29.99,0,0,0,0.00
2013-11-11,57.6,46.3,36.0,32.2,27.4,21.9,58,48,37,30.30,30.11,0,0,0,0.00
2013-11-12,56.6,39.8,35.9,37.5,26.6,21.4,69,59,45,30.33,29.98,0,0,0,0.00
2013-11-13,43.2,34.0,27.0,19.3,16.1,13.2,57,48,38,30.47,30.36,0,0,0,0.00
2013-11-14,56.4,39.1,24.7,27.2,20.6,14.2,66,49,32,30.40,30.27,0,0,0,0.00
2013-11-15,58.7,45.0,30.6,38.5,29.6,17.5,65,55,46,30.30,30.15,0,0,0,0.00
2013-11-16,59.6,56.9,49.5,52.2,50.0,39.5,82,78,66,30.22,30.16,0,0,0,0.00
2013-11-17,66.8,63.2,54.2,58.8,56.5,48.8,85,79,75,30.18,29.86,0,0,0,0.00
2013-11-18,71.9,64.2,54.9,62.8,51.6,31.7,89,66,41,29.91,29.75,0,0,0,0.08
2013-11-19,54.0,46.0,40.5,31.2,27.1,25.6,55,48,40,30.23,29.91,0,0,0,0.00
2013-11-20,49.9,43.4,35.5,31.8,28.9,23.0,62,57,48,30.40,30.27,0,0,0,0.00
2013-11-21,56.0,47.8,40.2,43.2,37.2,30.9,72,67,62,30.44,30.34,0,0,0,0.00
2013-11-22,67.0,60.1,47.0,56.5,51.2,38.5,75,72,68,30.33,30.03,0,0,0,0.00
2013-11-23,62.1,56.0,46.8,54.3,43.8,26.0,80,65,37,30.08,29.99,0,0,0,0.00
2013-11-24,41.4,31.8,25.6,21.1,9.2,5.2,44,38,31,30.48,30.13,0,0,0,0.00
2013-11-25,40.7,32.1,19.5,15.5,11.5,4.7,55,42,34,30.53,30.35,0,0,0,0.00
2013-11-26,61.6,43.9,35.7,58.3,36.0,15.1,89,75,42,30.31,29.54,0,0,0,0.98
2013-11-27,45.6,43.5,30.1,41.3,38.8,17.5,86,83,61,30.05,29.45,0,0,0,0.39
2013-11-28,42.5,35.2,23.1,25.1,20.1,13.4,69,54,44,30.42,30.09,0,0,0,0.00
2013-11-29,47.6,38.4,25.4,26.7,22.6,17.3,72,53,43,30.58,30.41,0,0,0,0.00
2013-11-30,45.6,35.3,27.8,30.3,23.7,18.0,69,63,55,30.58,30.34,0,0,0,0.00
2013-12-1,54.0,38.8,27.6,34.3,26.8,20.1,74,63,47,30.33,30.00,0,0,0,0.00
2013-12-2,56.6,42.6,32.6,42.5,32.3,23.9,75,67,57,29.99,29.78,0,0,0,0.00
2013-12-3,54.0,45.1,34.8,42.9,36.3,27.8,79,71,65,29.93,29.82,0,0,0,0.00
2013-12-4,61.1,54.2,48.8,53.4,47.6,41.1,81,79,73,30.03,29.93,0,0,0,0.02
2013-12-5,66.1,60.4,54.2,61.1,56.0,49.2,89,85,82,30.08,29.99,0,0,0,0.04
2013-12-6,75.1,68.3,62.7,63.0,60.3,58.8,89,76,63,30.01,29.91,0,0,0,0.00
2013-12-7,67.2,44.5,42.2,60.8,37.1,32.4,84,75,68,30.40,29.93,0,0,0,0.20
2013-12-8,41.6,35.1,31.9,31.8,27.9,25.5,84,76,62,30.40,30.26,0,0,0,0.27
2013-12-9,43.8,38.1,33.7,39.9,34.2,29.4,87,85,84,30.25,30.02,0,0,0,0.27
2013-12-10,44.7,42.2,32.1,41.0,36.9,23.1,88,81,64,30.24,29.88,0,0,0,0.33
2013-12-11,46.1,34.5,25.2,27.5,23.8,19.3,79,66,47,30.38,30.24,0,0,0,0.00
2013-12-12,41.1,35.1,28.5,23.7,19.4,13.9,70,53,39,30.36,30.21,0,0,0,0.00
2013-12-13,48.3,34.0,22.9,25.1,19.1,13.2,67,55,39,30.32,30.21,0,0,0,0.00
2013-12-14,43.8,41.1,36.6,35.7,32.1,23.8,81,70,59,30.24,29.87,0,0,0,0.22
2013-12-15,51.0,44.9,36.9,39.2,33.1,25.0,85,64,52,29.99,29.67,0,0,0,0.02
2013-12-16,52.4,39.6,28.1,34.6,28.3,20.7,76,64,49,30.11,30.00,0,0,0,0.00
2013-12-17,56.6,46.7,32.6,40.1,34.0,25.9,78,62,52,30.05,29.81,0,0,0,0.00
2013-12-18,46.1,36.8,32.8,34.1,20.7,17.3,70,52,38,30.21,29.97,0,0,0,0.00
2013-12-19,58.7,44.2,27.9,31.4,25.2,16.5,65,48,34,30.26,30.16,0,0,0,0.00
2013-12-20,65.0,53.6,38.7,50.3,41.0,26.0,69,62,49,30.18,30.05,0,0,0,0.00
2013-12-21,70.4,63.5,46.3,60.2,54.6,39.5,84,73,64,30.10,29.97,0,0,0,0.00
2013-12-22,74.6,68.6,63.2,65.1,61.6,57.6,84,79,65,30.03,29.95,0,0,0,0.16
2013-12-23,65.0,58.6,48.5,61.4,53.7,39.3,89,84,71,30.09,29.93,0,0,0,0.88
2013-12-24,46.8,39.2,29.7,37.6,23.9,12.7,70,54,46,30.38,30.09,0,0,0,0.00
2013-12-25,36.6,31.0,22.2,16.9,14.0,9.4,58,49,42,30.49,30.35,0,0,0,0.00
2013-12-26,49.7,34.9,23.4,28.9,21.7,11.9,73,59,43,30.33,30.17,0,0,0,0.00
2013-12-27,49.4,37.7,26.1,26.6,21.1,16.3,67,51,40,30.41,30.31,0,0,0,0.00
2013-12-28,54.9,39.0,26.1,33.2,24.8,16.5,70,57,42,30.35,30.12,0,0,0,0.00
2013-12-29,53.1,48.2,42.0,47.1,42.3,33.0,86,80,62,30.11,29.65,0,0,0,1.53
2013-12-30,52.4,44.3,37.8,41.2,35.9,31.5,82,73,63,30.09,29.88,0,0,0,0.00
2013-12-31,48.8,37.7,33.9,33.4,24.0,21.0,76,58,42,30.29,30.08,0,0,0,0.00
2014-1-1,48.8,41.1,30.3,30.0,26.5,20.2,71,57,45,30.37,30.14,0,0,0,0.00
2014-1-2,45.6,40.7,35.9,37.8,32.1,25.2,81,71,63,30.09,29.55,0,0,0,0.33